Time;durP1;ratioP1;P1;durP2;ratioP2;P2;SDS_P1;SDS_P2;PMS_P1;PMS_P2;Temp;Humidity;BMP_temperature;BMP_pressure;BME280_temperature;BME280_humidity;BME280_pressure;Samples;Min_cycle;Max_cycle;Signal;HPM_P1;HPM_P2
2024/01/10 00:01:06;;;;;;;18.88;8.70;;;;;;;-6.28;62.56;102079.06;10465142;28;20040;-79
2024/01/10 00:06:11;;;;;;;22.92;9.68;;;;;;;-6.37;62.67;102072.81;10493282;28;20048;-78
2024/01/10 00:11:14;;;;;;;19.13;9.45;;;;;;;-6.39;62.57;102078.88;10484716;28;20788;-78
2024/01/10 00:16:17;;;;;;;21.75;9.18;;;;;;;-6.44;62.69;102063.16;10486462;28;20152;-80
2024/01/10 00:21:21;;;;;;;24.35;8.13;;;;;;;-6.31;62.87;102058.97;10469580;28;20047;-79
2024/01/10 00:26:24;;;;;;;21.30;8.93;;;;;;;-6.36;62.75;102065.88;10461210;28;20060;-79
2024/01/10 00:31:27;;;;;;;16.77;8.50;;;;;;;-6.62;64.05;102068.06;10502315;28;20048;-79
2024/01/10 00:36:32;;;;;;;20.83;8.43;;;;;;;-6.75;64.76;102064.34;10446904;28;21334;-79
2024/01/10 00:41:35;;;;;;;21.05;8.57;;;;;;;-6.74;64.77;102063.53;10456712;28;22349;-78
2024/01/10 00:46:38;;;;;;;23.20;9.30;;;;;;;-6.67;64.68;102054.03;10470301;28;20052;-79
2024/01/10 00:51:42;;;;;;;21.58;8.27;;;;;;;-6.77;64.87;102048.66;10505799;28;20052;-80
2024/01/10 00:56:45;;;;;;;24.73;9.38;;;;;;;-6.77;65.57;102046.06;10519773;28;20043;-77
2024/01/10 01:01:48;;;;;;;21.45;7.95;;;;;;;-6.84;66.68;102045.91;10507500;28;20062;-78
2024/01/10 01:06:52;;;;;;;23.70;7.85;;;;;;;-6.94;67.77;102046.59;10526609;28;20048;-78
2024/01/10 01:11:55;;;;;;;18.73;8.63;;;;;;;-6.97;68.21;102037.84;10521609;28;20056;-79
2024/01/10 01:16:58;;;;;;;19.20;8.30;;;;;;;-6.90;68.10;102040.59;10500162;28;20054;-78
2024/01/10 01:22:03;;;;;;;23.92;8.60;;;;;;;-6.85;68.35;102044.16;10506848;28;20115;-80
2024/01/10 01:27:06;;;;;;;22.40;10.10;;;;;;;-6.89;67.60;102037.09;10495705;28;20056;-80
2024/01/10 01:32:09;;;;;;;19.20;9.32;;;;;;;-6.95;66.67;102030.03;10502869;28;20051;-77
2024/01/10 01:37:13;;;;;;;20.45;9.43;;;;;;;-6.97;66.34;102027.38;10488110;28;20044;-78
2024/01/10 01:42:16;;;;;;;19.13;8.48;;;;;;;-7.08;66.51;102028.94;10526127;28;20055;-80
2024/01/10 01:47:19;;;;;;;24.02;9.57;;;;;;;-7.05;66.37;102026.41;10506499;28;20059;-80
2024/01/10 01:52:24;;;;;;;21.85;8.88;;;;;;;-7.00;66.18;102008.19;10506682;28;20181;-79
2024/01/10 01:57:28;;;;;;;20.45;8.75;;;;;;;-7.04;65.91;102012.47;10512375;28;20052;-78
2024/01/10 02:02:31;;;;;;;33.20;9.57;;;;;;;-7.07;65.90;102008.94;10492605;28;21243;-78
2024/01/10 02:07:36;;;;;;;20.45;8.30;;;;;;;-6.95;65.64;102011.75;10510349;28;20512;-80
2024/01/10 02:12:39;;;;;;;22.33;9.57;;;;;;;-6.86;65.84;102009.28;10500713;28;20048;-79
2024/01/10 02:17:42;;;;;;;23.58;8.85;;;;;;;-6.87;66.51;101999.69;10499756;28;20047;-79
2024/01/10 02:22:46;;;;;;;24.90;9.93;;;;;;;-6.86;66.92;102004.06;10484784;28;20094;-79
2024/01/10 02:27:51;;;;;;;21.02;9.00;;;;;;;-6.90;66.50;101994.41;10474002;28;20843;-79
2024/01/10 02:32:54;;;;;;;23.45;9.65;;;;;;;-6.90;66.37;101983.09;10460147;28;20081;-79
2024/01/10 02:37:57;;;;;;;22.23;9.88;;;;;;;-6.87;66.19;101984.03;10452983;28;20070;-79
2024/01/10 02:43:03;;;;;;;21.90;9.32;;;;;;;-6.86;65.14;101980.53;10502209;28;20136;-80
2024/01/10 02:48:06;;;;;;;25.85;9.35;;;;;;;-6.79;64.71;101981.53;10495411;28;20853;-78
2024/01/10 02:53:09;;;;;;;23.13;9.70;;;;;;;-6.86;64.56;101972.69;10467665;28;20044;-79
2024/01/10 02:58:14;;;;;;;20.88;8.75;;;;;;;-6.97;64.68;101966.41;10471169;28;20048;-79
2024/01/10 03:03:17;;;;;;;20.77;9.48;;;;;;;-7.02;64.14;101979.44;10474401;28;20123;-79
2024/01/10 03:08:20;;;;;;;24.02;9.38;;;;;;;-7.02;64.50;101979.44;10485142;28;20037;-78
2024/01/10 03:13:24;;;;;;;26.23;10.00;;;;;;;-7.00;64.92;101982.06;10477809;28;20044;-79
2024/01/10 03:18:27;;;;;;;20.80;9.10;;;;;;;-7.02;64.07;101979.44;10457252;28;20198;-79
2024/01/10 03:23:30;;;;;;;27.05;10.23;;;;;;;-7.04;64.09;101981.13;10447284;28;20052;-79
2024/01/10 03:28:35;;;;;;;19.65;8.63;;;;;;;-7.04;64.37;101977.66;10457341;28;20066;-79
2024/01/10 03:33:38;;;;;;;23.08;10.38;;;;;;;-7.14;63.77;101976.59;10457198;28;20045;-79
2024/01/10 03:38:41;;;;;;;26.15;9.65;;;;;;;-7.15;63.85;101969.63;10458715;28;20288;-79
2024/01/10 03:50:13;;;;;;;21.10;9.10;;;;;;;-7.10;63.56;101972.28;10461567;28;20040;-79
2024/01/10 03:55:16;;;;;;;26.63;10.18;;;;;;;-7.17;63.36;101976.53;10456281;28;20671;-80
2024/01/10 04:00:19;;;;;;;23.48;9.63;;;;;;;-7.37;63.46;101985.78;10452058;28;20052;-80
2024/01/10 04:05:25;;;;;;;20.25;9.35;;;;;;;-7.37;64.49;101975.31;10456512;28;20057;-79
2024/01/10 04:10:28;;;;;;;28.80;9.88;;;;;;;-7.39;65.07;101983.13;10458036;28;20135;-80
2024/01/10 04:15:31;;;;;;;24.65;9.52;;;;;;;-7.34;65.23;101985.81;10456343;28;21284;-78
2024/01/10 04:20:35;;;;;;;25.58;9.93;;;;;;;-7.38;64.83;101981.38;10454413;28;20053;-77
2024/01/10 04:25:38;;;;;;;25.00;11.00;;;;;;;-7.69;65.01;101979.06;10449191;28;20044;-79
2024/01/10 04:30:41;;;;;;;24.45;9.77;;;;;;;-7.65;65.71;101985.22;10455576;28;20055;-80
2024/01/10 04:35:46;;;;;;;26.60;10.18;;;;;;;-7.58;66.00;101981.00;10450316;28;20087;-78
2024/01/10 04:40:49;;;;;;;23.00;10.55;;;;;;;-7.59;65.70;101977.53;10453231;28;20493;-79
2024/01/10 04:45:52;;;;;;;24.00;10.48;;;;;;;-7.66;65.57;101960.84;10452135;28;20044;-78
2024/01/10 04:50:56;;;;;;;27.27;10.95;;;;;;;-7.71;66.17;101961.63;10447136;28;20041;-77
2024/01/10 04:55:59;;;;;;;24.45;10.48;;;;;;;-7.80;66.32;101964.94;10456499;28;20048;-79
2024/01/10 05:01:02;;;;;;;26.05;10.77;;;;;;;-7.80;67.10;101951.00;10450025;28;20601;-79
2024/01/10 05:06:07;;;;;;;25.52;10.43;;;;;;;-7.78;68.05;101949.31;10456255;28;20045;-79
2024/01/10 05:11:10;;;;;;;25.77;10.80;;;;;;;-7.80;68.63;101941.44;10441652;28;20059;-78
2024/01/10 05:16:14;;;;;;;28.95;12.15;;;;;;;-7.84;69.88;101954.38;10448774;28;20048;-79
2024/01/10 05:21:19;;;;;;;28.35;11.65;;;;;;;-7.67;70.00;101953.00;10483501;28;20041;-78
2024/01/10 05:26:22;;;;;;;29.38;11.75;;;;;;;-7.68;69.74;101940.78;10481796;28;20060;-78
2024/01/10 05:31:25;;;;;;;30.40;11.52;;;;;;;-7.77;69.54;101930.19;10449015;28;20045;-78
2024/01/10 05:36:30;;;;;;;27.92;12.40;;;;;;;-7.87;69.79;101927.41;10449266;28;20048;-78
2024/01/10 05:41:33;;;;;;;27.10;11.52;;;;;;;-7.96;70.32;101940.25;10457806;28;20056;-77
2024/01/10 05:46:37;;;;;;;35.95;12.68;;;;;;;-7.81;71.08;101950.13;10455310;28;20052;-79
2024/01/10 05:51:42;;;;;;;27.88;12.93;;;;;;;-7.84;70.99;101944.88;10449150;28;20456;-78
2024/01/10 05:56:45;;;;;;;27.70;12.18;;;;;;;-7.96;70.50;101942.00;10455920;28;20055;-78
2024/01/10 06:01:48;;;;;;;29.00;12.63;;;;;;;-8.11;70.60;101929.53;10460529;28;20183;-78
2024/01/10 06:06:52;;;;;;;31.20;13.02;;;;;;;-8.05;71.31;101926.16;10457246;28;20109;-78
2024/01/10 06:11:55;;;;;;;37.42;13.23;;;;;;;-8.06;71.34;101922.69;10456070;28;20044;-78
2024/01/10 06:16:59;;;;;;;29.73;12.73;;;;;;;-8.00;71.77;101917.59;10450889;28;20051;-78
2024/01/10 06:22:04;;;;;;;32.75;13.35;;;;;;;-7.97;71.86;101925.47;10461101;28;20048;-78
2024/01/10 06:27:08;;;;;;;33.03;13.13;;;;;;;-8.01;71.57;101926.25;10454614;28;20048;-77
2024/01/10 06:32:11;;;;;;;34.00;13.82;;;;;;;-8.12;71.63;101922.53;10453158;28;20060;-76
2024/01/10 06:37:15;;;;;;;34.75;12.80;;;;;;;-8.05;71.49;101929.66;10449451;28;20044;-77
2024/01/10 06:42:18;;;;;;;31.90;13.32;;;;;;;-8.10;71.22;101926.06;10458016;28;20094;-78
2024/01/10 06:47:22;;;;;;;30.17;13.50;;;;;;;-7.98;70.99;101931.53;10452661;28;20052;-78
2024/01/10 06:52:26;;;;;;;34.10;14.82;;;;;;;-7.89;70.99;101928.22;10464870;28;20091;-79
2024/01/10 06:57:29;;;;;;;36.65;15.20;;;;;;;-7.86;70.17;101941.34;10461233;28;20049;-79
2024/01/10 07:02:35;;;;;;;37.60;17.02;;;;;;;-7.77;70.43;101948.44;10462641;28;20056;-79
2024/01/10 07:07:40;;;;;;;32.67;14.52;;;;;;;-7.74;69.99;101953.72;10460288;28;21225;-77
2024/01/10 07:12:43;;;;;;;37.80;14.65;;;;;;;-7.77;69.67;101948.44;10444780;28;20053;-79
2024/01/10 07:17:46;;;;;;;32.47;12.13;;;;;;;-7.84;70.00;101962.22;10450182;28;20052;-79
2024/01/10 07:22:51;;;;;;;33.75;13.88;;;;;;;-7.99;71.37;101968.03;10458722;28;20045;-78
2024/01/10 07:27:54;;;;;;;34.55;13.75;;;;;;;-7.96;71.70;101973.28;10456867;28;20071;-79
2024/01/10 07:32:57;;;;;;;36.40;14.77;;;;;;;-7.76;71.80;101976.28;10472806;28;20045;-77
2024/01/10 07:38:01;;;;;;;11.15;4.82;;;;;;;-7.56;71.41;101972.34;10475786;28;20049;-79
2024/01/10 07:43:05;;;;;;;101.75;41.10;;;;;;;-6.79;71.18;101961.50;10452625;28;20760;-79
2024/01/10 07:48:08;;;;;;;64.30;28.95;;;;;;;-6.26;69.12;101962.25;10451272;28;20051;-79
2024/01/10 07:53:13;;;;;;;29.05;14.55;;;;;;;-6.07;66.83;101958.16;10449365;28;20602;-79
2024/01/10 07:58:17;;;;;;;29.05;14.90;;;;;;;-5.97;64.97;101963.53;10459624;28;20454;-80
2024/01/10 08:03:19;;;;;;;27.90;14.77;;;;;;;-5.80;64.09;101968.09;10450725;28;20416;-77
2024/01/10 08:08:24;;;;;;;32.35;14.82;;;;;;;-5.69;63.19;101954.25;10461145;28;20094;-77
2024/01/10 08:13:27;;;;;;;36.92;17.85;;;;;;;-6.02;61.42;101959.97;10461369;28;20045;-79
2024/01/10 08:18:30;;;;;;;36.33;17.00;;;;;;;-5.99;62.64;101966.97;10460438;28;20054;-78
2024/01/10 08:23:35;;;;;;;40.85;17.35;;;;;;;-5.38;63.09;101956.31;10452545;28;20121;-78
2024/01/10 08:28:38;;;;;;;35.85;16.17;;;;;;;-4.83;59.91;101960.28;10457786;28;20056;-79
2024/01/10 08:33:41;;;;;;;36.22;16.40;;;;;;;-4.45;58.29;101954.44;10458973;28;20410;-78
2024/01/10 08:38:46;;;;;;;37.28;17.00;;;;;;;-3.89;56.42;101961.72;10453232;28;20073;-79
2024/01/10 08:43:48;;;;;;;36.95;15.43;;;;;;;-3.67;55.27;101954.78;10443486;28;20044;-77
2024/01/10 08:48:52;;;;;;;39.70;16.60;;;;;;;-3.29;54.14;101956.63;10445789;28;20049;-78
2024/01/10 08:53:56;;;;;;;50.03;16.40;;;;;;;-2.94;52.94;101953.13;10465636;28;20102;-79
2024/01/10 08:58:59;;;;;;;33.38;15.98;;;;;;;-2.81;51.24;101960.16;10459270;28;20068;-78
2024/01/10 09:04:04;;;;;;;32.78;16.15;;;;;;;-2.72;51.18;101954.00;10466580;28;20095;-78
2024/01/10 09:09:09;;;;;;;38.10;16.70;;;;;;;-2.28;50.71;101942.50;10462351;28;20063;-78
2024/01/10 09:14:12;;;;;;;39.08;16.75;;;;;;;-2.01;48.64;101938.91;10481559;28;20073;-77
2024/01/10 09:19:15;;;;;;;41.35;16.42;;;;;;;-1.89;48.17;101927.47;10465296;28;20052;-78
2024/01/10 09:24:19;;;;;;;41.10;17.27;;;;;;;-1.97;48.47;101942.44;10445401;28;20051;-78
2024/01/10 09:29:31;;;;;;;38.80;17.50;;;;;;;-1.52;48.02;101948.34;10433374;28;20063;-79
2024/01/10 09:34:34;;;;;;;36.40;16.45;;;;;;;-1.10;46.85;101954.19;10456913;28;20041;-78
2024/01/10 09:39:39;;;;;;;41.13;18.55;;;;;;;-0.80;45.88;101953.94;10450617;28;20052;-77
2024/01/10 09:44:42;;;;;;;34.40;16.17;;;;;;;-0.62;45.42;101947.63;10465128;28;20047;-75
2024/01/10 09:49:46;;;;;;;36.38;17.60;;;;;;;-0.53;44.90;101946.66;10473872;28;20102;-79
2024/01/10 09:54:54;;;;;;;32.95;16.67;;;;;;;-0.40;44.39;101935.09;10442720;28;20047;-78
2024/01/10 09:59:58;;;;;;;34.85;16.80;;;;;;;-0.28;44.17;101928.78;10457278;28;20515;-79
2024/01/10 10:05:05;;;;;;;35.15;16.45;;;;;;;0.08;44.75;101919.56;10457267;28;20036;-80
2024/01/10 10:10:11;;;;;;;34.90;16.75;;;;;;;0.42;43.88;101924.38;10478677;28;20060;-78
2024/01/10 10:15:15;;;;;;;33.25;17.08;;;;;;;0.97;42.87;101920.88;10466772;28;20051;-77
2024/01/10 10:20:21;;;;;;;36.35;15.88;;;;;;;0.67;42.30;101911.66;10474751;28;20047;-78
2024/01/10 10:25:28;;;;;;;34.88;16.15;;;;;;;1.08;42.49;101904.81;10477327;28;20167;-77
2024/01/10 10:30:32;;;;;;;33.50;16.48;;;;;;;1.39;41.27;101897.19;10471035;28;20075;-78
2024/01/10 10:35:41;;;;;;;35.67;16.88;;;;;;;1.32;40.72;101890.28;10458697;28;20040;-78
2024/01/10 10:40:52;;;;;;;32.85;16.88;;;;;;;1.26;40.66;101898.31;10449187;28;20122;-78
2024/01/10 10:45:57;;;;;;;31.88;16.58;;;;;;;1.56;40.84;101893.34;10447474;28;21505;-78
2024/01/10 10:51:07;;;;;;;36.60;16.35;;;;;;;2.16;39.45;101890.31;10452684;28;21332;-78
2024/01/10 10:56:13;;;;;;;32.75;15.63;;;;;;;2.34;38.76;101883.75;10454498;28;20044;-79
2024/01/10 11:01:17;;;;;;;33.97;16.80;;;;;;;3.67;37.89;101874.16;10449535;28;20052;-79
2024/01/10 11:06:21;;;;;;;31.35;15.73;;;;;;;4.79;36.01;101866.25;10460697;28;20053;-78
2024/01/10 11:11:40;;;;;;;32.20;15.52;;;;;;;5.44;34.33;101864.94;10460061;28;20109;-78
2024/01/10 11:17:07;;;;;;;35.65;16.10;;;;;;;5.22;34.24;101856.84;10454892;28;20135;-79
2024/01/10 11:22:23;;;;;;;29.65;14.88;;;;;;;5.97;33.93;101863.00;10465362;28;20053;-79
2024/01/10 11:27:28;;;;;;;31.73;16.40;;;;;;;6.18;33.30;101867.53;10473719;28;20273;-78
2024/01/10 11:32:31;;;;;;;36.72;16.85;;;;;;;6.77;33.51;101877.56;10448786;28;20048;-78
2024/01/10 11:37:43;;;;;;;34.20;18.48;;;;;;;7.11;33.38;101857.50;10459677;28;20075;-76
2024/01/10 11:42:48;;;;;;;37.25;19.23;;;;;;;6.86;33.63;101863.00;10452518;28;20428;-77
2024/01/10 11:47:51;;;;;;;32.92;17.20;;;;;;;7.01;33.20;101859.69;10449758;28;20052;-76
2024/01/10 11:52:55;;;;;;;32.50;16.55;;;;;;;6.79;32.86;101850.81;10449481;28;20565;-76
2024/01/10 11:58:09;;;;;;;37.00;17.25;;;;;;;7.25;33.18;101849.75;10454773;28;20557;-77
2024/01/10 12:03:12;;;;;;;33.35;16.77;;;;;;;6.89;32.30;101843.31;10454085;28;20098;-79
2024/01/10 12:08:15;;;;;;;33.38;16.63;;;;;;;7.35;31.91;101843.97;10458141;28;20055;-77
2024/01/10 12:13:26;;;;;;;30.98;17.05;;;;;;;7.37;32.17;101842.13;10456291;28;20464;-78
2024/01/10 12:18:29;;;;;;;33.35;17.55;;;;;;;7.56;32.09;101843.03;10463352;28;20126;-77
2024/01/10 12:23:34;;;;;;;34.97;17.35;;;;;;;7.62;31.48;101842.72;10459100;28;20840;-79
2024/01/10 12:28:39;;;;;;;34.10;19.30;;;;;;;7.65;31.66;101839.94;10458687;28;20052;-79
2024/01/10 12:33:42;;;;;;;35.92;19.73;;;;;;;7.63;31.54;101828.44;10456463;28;20048;-79
2024/01/10 12:38:45;;;;;;;40.45;20.00;;;;;;;7.19;32.50;101817.94;10454288;28;20135;-78
2024/01/10 12:43:54;;;;;;;39.30;20.77;;;;;;;6.40;33.57;101822.16;10472766;28;20043;-78
2024/01/10 12:49:01;;;;;;;32.88;17.55;;;;;;;5.79;34.05;101824.56;10478171;28;20109;-78
2024/01/10 12:54:05;;;;;;;34.58;18.90;;;;;;;5.36;34.10;101835.03;10468321;28;20052;-78
2024/01/10 12:59:10;;;;;;;35.63;19.30;;;;;;;5.10;35.10;101832.41;10478576;28;20051;-78
2024/01/10 13:04:13;;;;;;;35.83;18.02;;;;;;;4.76;34.99;101825.56;10469088;28;20102;-78
2024/01/10 13:09:18;;;;;;;38.63;18.92;;;;;;;4.84;35.16;101827.03;10466090;28;20044;-78
2024/01/10 13:14:23;;;;;;;45.85;22.05;;;;;;;5.00;36.01;101830.09;10472691;28;20049;-78
2024/01/10 13:19:27;;;;;;;47.15;23.13;;;;;;;4.90;36.53;101825.97;10466002;28;20076;-78
2024/01/10 13:24:30;;;;;;;44.33;21.88;;;;;;;4.89;36.73;101829.56;10467841;28;20277;-78
2024/01/10 13:29:36;;;;;;;46.47;23.63;;;;;;;5.10;36.47;101828.00;10479040;28;20121;-78
2024/01/10 13:34:39;;;;;;;44.38;22.15;;;;;;;5.14;36.44;101823.41;10471737;28;20136;-79
2024/01/10 13:39:42;;;;;;;46.47;23.15;;;;;;;5.06;36.41;101815.69;10474292;28;20090;-78
2024/01/10 13:44:47;;;;;;;47.63;23.25;;;;;;;4.76;36.93;101818.44;10489642;28;21182;-78
2024/01/10 13:49:50;;;;;;;45.50;21.92;;;;;;;4.45;37.48;101826.59;10489683;28;20623;-79
2024/01/10 13:54:53;;;;;;;45.72;22.40;;;;;;;4.38;37.91;101825.91;10472067;28;20041;-77
2024/01/10 13:59:57;;;;;;;40.45;20.60;;;;;;;4.46;37.31;101823.00;10472153;28;21247;-79
2024/01/10 14:05:05;;;;;;;41.72;21.13;;;;;;;4.28;36.59;101820.91;10487788;28;20068;-77
2024/01/10 14:10:10;;;;;;;39.55;20.02;;;;;;;3.85;36.76;101830.25;10480868;28;20148;-77
2024/01/10 14:15:15;;;;;;;47.60;20.58;;;;;;;3.66;37.03;101841.41;10480868;28;20048;-79
2024/01/10 14:20:18;;;;;;;44.85;20.63;;;;;;;3.56;37.16;101834.63;10476069;28;20504;-79
2024/01/10 14:25:21;;;;;;;41.05;20.13;;;;;;;3.50;37.30;101830.34;10480269;28;20170;-78
2024/01/10 14:30:27;;;;;;;39.80;20.60;;;;;;;3.21;37.51;101840.91;10473473;28;20049;-79
2024/01/10 14:35:29;;;;;;;40.47;20.88;;;;;;;2.98;38.01;101846.84;10482382;28;20529;-78
2024/01/10 14:40:33;;;;;;;47.47;22.15;;;;;;;2.75;38.54;101844.78;10480629;28;20075;-78
2024/01/10 14:45:37;;;;;;;47.45;22.55;;;;;;;2.47;39.35;101847.19;10462221;28;20789;-78
2024/01/10 14:50:40;;;;;;;43.55;21.73;;;;;;;2.08;39.92;101841.91;10483452;28;20047;-79
2024/01/10 14:55:43;;;;;;;47.53;22.88;;;;;;;1.61;40.97;101847.31;10481539;28;20051;-79
2024/01/10 15:00:48;;;;;;;44.70;21.35;;;;;;;1.06;41.86;101851.91;10475295;28;20048;-78
2024/01/10 15:05:53;;;;;;;47.55;22.52;;;;;;;0.55;42.79;101857.19;10464631;28;20047;-78
2024/01/10 15:10:56;;;;;;;51.25;23.20;;;;;;;-0.11;44.41;101859.91;10481641;28;20071;-78
2024/01/10 15:16:01;;;;;;;50.63;23.42;;;;;;;-0.72;46.04;101864.13;10474469;28;20052;-79
2024/01/10 15:21:05;;;;;;;55.53;25.48;;;;;;;-1.11;47.38;101868.06;10469192;28;20617;-79
2024/01/10 15:26:08;;;;;;;58.92;23.73;;;;;;;-1.38;48.43;101871.78;10471233;28;20049;-78
2024/01/10 15:31:16;;;;;;;55.85;25.17;;;;;;;-1.55;49.51;101869.28;10451497;28;20170;-77
2024/01/10 15:36:19;;;;;;;55.15;24.92;;;;;;;-1.58;50.27;101874.59;10451342;28;20037;-77
2024/01/10 15:41:22;;;;;;;64.72;26.67;;;;;;;-1.72;51.11;101877.31;10457665;28;20052;-77
2024/01/10 15:46:26;;;;;;;61.72;27.23;;;;;;;-1.85;52.11;101876.50;10460925;28;20059;-77
2024/01/10 15:51:29;;;;;;;59.63;25.27;;;;;;;-1.96;53.32;101873.06;10462478;28;21169;-78
2024/01/10 15:56:33;;;;;;;59.05;27.38;;;;;;;-2.11;53.60;101885.41;10459843;28;20060;-78
2024/01/10 16:01:38;;;;;;;60.58;27.67;;;;;;;-2.22;54.31;101883.69;10458873;28;20056;-77
2024/01/10 16:06:41;;;;;;;59.45;26.42;;;;;;;-2.31;54.89;101879.34;10453446;28;20047;-77
2024/01/10 16:11:44;;;;;;;68.55;28.70;;;;;;;-2.37;55.15;101887.28;10443983;28;20040;-78
2024/01/10 16:16:50;;;;;;;69.95;28.08;;;;;;;-2.46;55.31;101884.69;10440377;28;20048;-77
2024/01/10 16:21:53;;;;;;;66.18;28.55;;;;;;;-2.58;55.87;101890.81;10436209;28;20169;-78
2024/01/10 16:26:56;;;;;;;69.82;29.38;;;;;;;-2.59;56.39;101896.97;10433682;28;20058;-77
2024/01/10 16:32:00;;;;;;;67.70;28.95;;;;;;;-2.73;56.88;101887.34;10429091;28;21001;-77
2024/01/10 16:37:04;;;;;;;74.07;29.92;;;;;;;-2.78;56.94;101883.00;10438626;28;20044;-77
2024/01/10 16:42:08;;;;;;;68.85;28.38;;;;;;;-2.84;57.58;101885.63;10449491;28;20673;-78
2024/01/10 16:47:12;;;;;;;64.20;28.85;;;;;;;-2.89;57.80;101883.00;10451146;28;21251;-78
2024/01/10 16:52:15;;;;;;;67.72;29.98;;;;;;;-2.97;57.86;101888.25;10441225;28;20102;-77
2024/01/10 16:57:18;;;;;;;65.07;28.45;;;;;;;-3.04;57.97;101883.03;10453138;28;20044;-77
2024/01/10 17:02:22;;;;;;;66.75;27.83;;;;;;;-3.15;57.71;101888.28;10455847;28;20044;-77
2024/01/10 17:07:26;;;;;;;65.03;28.67;;;;;;;-3.25;57.97;101889.16;10437345;28;20505;-78
2024/01/10 17:12:29;;;;;;;71.13;30.45;;;;;;;-3.24;58.18;101898.78;10452823;28;20053;-77
2024/01/10 17:17:33;;;;;;;61.80;27.70;;;;;;;-3.27;57.93;101901.41;10457245;28;21779;-78
2024/01/10 17:22:37;;;;;;;62.58;26.35;;;;;;;-3.31;57.89;101894.44;10456245;28;20153;-78
2024/01/10 17:27:42;;;;;;;64.78;26.80;;;;;;;-3.34;58.00;101905.81;10464944;28;20610;-78
2024/01/10 17:32:50;;;;;;;74.60;30.40;;;;;;;-3.37;58.38;101905.81;10464430;28;20071;-78
2024/01/10 17:37:53;;;;;;;74.47;32.25;;;;;;;-3.39;59.39;101911.94;10458419;28;20079;-78
2024/01/10 17:42:56;;;;;;;66.55;29.10;;;;;;;-3.50;60.26;101911.94;10463614;28;20044;-78
2024/01/10 17:48:00;;;;;;;62.25;26.48;;;;;;;-3.75;61.17;101919.75;10461379;28;20578;-79
2024/01/10 17:53:04;;;;;;;66.05;26.38;;;;;;;-4.01;62.34;101922.28;10464375;28;20612;-78
2024/01/10 17:58:08;;;;;;;61.28;26.48;;;;;;;-4.15;64.20;101930.09;10466295;28;20639;-78
2024/01/10 18:03:13;;;;;;;66.88;27.02;;;;;;;-4.18;64.12;101924.84;10459643;28;20435;-79
2024/01/10 18:08:16;;;;;;;62.08;26.02;;;;;;;-4.31;63.23;101933.50;10459049;28;20048;-78
2024/01/10 18:13:19;;;;;;;62.63;26.83;;;;;;;-4.38;63.28;101934.38;10453231;28;20072;-78
2024/01/10 18:18:24;;;;;;;63.00;25.75;;;;;;;-4.39;63.20;101940.47;10455148;28;20052;-78
2024/01/10 18:23:27;;;;;;;61.67;26.05;;;;;;;-4.37;63.34;101930.88;10446960;28;20063;-78
2024/01/10 18:28:31;;;;;;;72.43;28.63;;;;;;;-4.27;63.01;101934.44;10473516;28;20057;-79
2024/01/10 18:33:35;;;;;;;69.32;27.27;;;;;;;-4.37;63.38;101936.13;10472305;28;20060;-78
2024/01/10 18:38:38;;;;;;;63.15;26.13;;;;;;;-4.54;63.93;101936.88;10449722;28;20053;-77
2024/01/10 18:43:41;;;;;;;68.05;26.83;;;;;;;-4.41;63.65;101939.59;10448603;28;20052;-77
2024/01/10 18:48:46;;;;;;;72.13;29.27;;;;;;;-4.36;63.18;101930.88;10451478;28;20048;-79
2024/01/10 18:53:49;;;;;;;66.30;25.67;;;;;;;-4.42;63.12;101922.09;10446910;28;20052;-79
2024/01/10 18:58:52;;;;;;;70.97;28.42;;;;;;;-4.49;63.08;101926.44;10452554;28;20048;-78
2024/01/10 19:03:56;;;;;;;64.22;27.90;;;;;;;-4.58;63.27;101928.97;10454274;28;20059;-78
2024/01/10 19:09:01;;;;;;;71.10;28.92;;;;;;;-4.76;63.71;101928.00;10458716;28;20052;-78
2024/01/10 19:14:04;;;;;;;66.50;26.70;;;;;;;-4.81;64.09;101936.72;10441372;28;20039;-77
2024/01/10 19:19:09;;;;;;;68.90;27.73;;;;;;;-4.76;63.85;101930.63;10461768;28;20125;-77
2024/01/10 19:24:12;;;;;;;68.35;29.33;;;;;;;-4.69;64.17;101933.28;10450378;28;20129;-78
2024/01/10 19:29:15;;;;;;;67.38;28.50;;;;;;;-4.69;63.90;101942.03;10442981;28;20056;-76
2024/01/10 19:34:19;;;;;;;66.30;28.38;;;;;;;-4.76;63.86;101929.75;10443770;28;20056;-77
2024/01/10 19:39:22;;;;;;;67.50;25.85;;;;;;;-4.75;63.82;101929.75;10448588;28;20059;-77
2024/01/10 19:44:25;;;;;;;69.65;27.67;;;;;;;-4.90;64.03;101940.16;10448576;28;20056;-77
2024/01/10 19:49:31;;;;;;;62.05;25.77;;;;;;;-4.95;64.62;101947.09;10452188;28;20055;-77
2024/01/10 19:54:35;;;;;;;69.10;28.52;;;;;;;-4.94;64.64;101966.31;10457391;28;20100;-78
2024/01/10 19:59:40;;;;;;;74.35;28.85;;;;;;;-4.86;64.50;101969.88;10442752;28;20041;-77
2024/01/10 20:04:45;;;;;;;63.25;28.80;;;;;;;-4.88;64.00;101985.59;10445395;28;22264;-78
2024/01/10 20:09:49;;;;;;;72.13;29.25;;;;;;;-4.99;63.98;101982.00;10447731;28;20064;-77
2024/01/10 20:14:52;;;;;;;70.82;29.33;;;;;;;-5.11;64.40;101984.53;10439756;28;20052;-77
2024/01/10 20:19:58;;;;;;;78.72;29.00;;;;;;;-5.05;64.53;101990.69;10449649;28;20048;-78
2024/01/10 20:25:01;;;;;;;74.82;29.88;;;;;;;-5.01;64.20;101987.25;10451746;28;20637;-78
2024/01/10 20:30:05;;;;;;;73.38;30.73;;;;;;;-5.02;64.21;101989.84;10451538;28;20040;-77
2024/01/10 20:35:09;;;;;;;198.23;63.70;;;;;;;-5.08;64.12;101987.16;10450677;28;20086;-78
2024/01/10 20:40:12;;;;;;;87.07;35.08;;;;;;;-5.09;64.02;101998.53;10473067;28;20095;-78
2024/01/10 20:45:18;;;;;;;95.57;37.72;;;;;;;-5.12;64.57;101995.88;10444161;28;20052;-78
2024/01/10 20:50:23;;;;;;;84.63;32.08;;;;;;;-5.12;64.99;102006.34;10444403;28;20044;-78
2024/01/10 20:55:26;;;;;;;83.50;32.13;;;;;;;-5.17;64.98;102011.53;10445477;28;20196;-77
2024/01/10 21:00:29;;;;;;;74.85;29.77;;;;;;;-5.11;65.04;102019.47;10444509;28;20041;-77
2024/01/10 21:05:34;;;;;;;75.15;30.45;;;;;;;-5.08;64.63;102018.63;10445774;28;20131;-78
2024/01/10 21:10:37;;;;;;;79.20;30.30;;;;;;;-5.09;64.20;102014.25;10442021;28;20355;-77
2024/01/10 21:15:40;;;;;;;67.90;29.42;;;;;;;-5.15;64.28;102020.31;10443233;28;20060;-77
2024/01/10 21:20:44;;;;;;;80.75;30.95;;;;;;;-5.17;64.27;102015.91;10449240;28;20055;-78
2024/01/10 21:25:47;;;;;;;72.95;29.15;;;;;;;-5.65;66.10;102016.28;10440141;28;20049;-78
2024/01/10 21:30:50;;;;;;;60.15;27.80;;;;;;;-6.21;72.29;102020.75;10440873;28;20545;-78
2024/01/10 21:35:55;;;;;;;68.13;27.58;;;;;;;-6.26;73.13;102019.81;10447706;28;20992;-77
2024/01/10 21:40:58;;;;;;;79.47;28.60;;;;;;;-6.17;73.50;102025.16;10442607;28;20049;-77
2024/01/10 21:46:01;;;;;;;74.80;29.27;;;;;;;-6.06;72.27;102027.94;10444484;28;20049;-76
2024/01/10 21:51:05;;;;;;;72.85;29.75;;;;;;;-5.93;71.81;102035.09;10444451;28;20045;-76
2024/01/10 21:56:08;;;;;;;75.32;30.50;;;;;;;-5.88;70.75;102034.28;10447281;28;20052;-79
2024/01/10 22:01:13;;;;;;;75.78;30.13;;;;;;;-5.83;69.89;102033.50;10449216;28;20060;-78
2024/01/10 22:06:17;;;;;;;76.07;30.13;;;;;;;-5.80;69.58;102038.75;10443030;28;20129;-79
2024/01/10 22:11:20;;;;;;;75.40;30.88;;;;;;;-5.65;69.23;102029.38;10451263;28;20044;-78
2024/01/10 22:16:23;;;;;;;78.40;30.58;;;;;;;-5.59;68.74;102036.41;10457091;28;20072;-78
2024/01/10 22:21:28;;;;;;;76.10;30.52;;;;;;;-5.63;67.73;102045.94;10456072;28;20075;-77
2024/01/10 22:26:31;;;;;;;71.07;30.40;;;;;;;-5.67;67.74;102041.56;10454963;28;20596;-78
2024/01/10 22:31:35;;;;;;;67.82;29.33;;;;;;;-5.71;67.54;102042.34;10452550;28;20147;-78
2024/01/10 22:36:39;;;;;;;72.90;28.42;;;;;;;-5.87;66.78;102056.09;10454177;28;20075;-78
2024/01/10 22:41:42;;;;;;;74.85;29.85;;;;;;;-5.93;67.42;102061.28;10451246;28;20583;-76
2024/01/10 22:46:46;;;;;;;77.60;30.30;;;;;;;-6.03;67.39;102061.97;10454158;28;20075;-76
2024/01/10 22:51:51;;;;;;;74.50;28.08;;;;;;;-6.11;68.86;102059.28;10448106;28;20060;-78
2024/01/10 22:56:54;;;;;;;76.45;30.98;;;;;;;-6.18;70.54;102060.03;10443824;28;20041;-77